Time;durP1;ratioP1;P1;durP2;ratioP2;P2;SDS_P1;SDS_P2;PMS_P1;PMS_P2;Temp;Humidity;BMP_temperature;BMP_pressure;BME280_temperature;BME280_humidity;BME280_pressure;Samples;Min_cycle;Max_cycle;Signal;HPM_P1;HPM_P2
2022/03/31 00:00:17;;;;;;;35.47;14.63;;;;;;;5.89;100.00;99790.09;4988074;28;20057;-78
2022/03/31 00:02:43;;;;;;;41.95;15.35;;;;;;;5.93;100.00;99782.56;4992718;28;20035;-78
2022/03/31 00:05:09;;;;;;;40.40;15.27;;;;;;;5.89;100.00;99775.66;5011792;28;20072;-78
2022/03/31 00:07:34;;;;;;;45.83;16.08;;;;;;;5.82;100.00;99783.41;4988714;28;20045;-78
2022/03/31 00:10:00;;;;;;;43.97;15.82;;;;;;;5.82;100.00;99779.81;4986682;28;20033;-78
2022/03/31 00:12:26;;;;;;;41.88;15.32;;;;;;;5.82;100.00;99778.00;4981847;28;20045;-77
2022/03/31 00:14:52;;;;;;;43.25;16.42;;;;;;;5.75;100.00;99767.72;5001448;28;20102;-77
2022/03/31 00:17:18;;;;;;;52.45;17.48;;;;;;;5.72;100.00;99774.22;4980639;28;20041;-77
2022/03/31 00:19:44;;;;;;;54.22;17.15;;;;;;;5.82;100.00;99768.94;5000815;28;20515;-77
2022/03/31 00:22:09;;;;;;;48.60;16.98;;;;;;;5.76;100.00;99761.31;4994886;28;20070;-77
2022/03/31 00:24:35;;;;;;;51.20;16.85;;;;;;;5.77;100.00;99766.63;4986153;28;20679;-78
2022/03/31 00:27:00;;;;;;;52.20;17.10;;;;;;;5.77;100.00;99763.00;4968850;28;20050;-77
2022/03/31 00:29:27;;;;;;;51.50;17.95;;;;;;;5.82;100.00;99761.69;4989222;28;20438;-77
2022/03/31 00:31:54;;;;;;;50.25;18.98;;;;;;;5.78;100.00;99760.19;4989078;28;20071;-77
2022/03/31 00:34:20;;;;;;;45.22;18.13;;;;;;;5.68;100.00;99751.88;4986246;28;20042;-78
2022/03/31 00:36:45;;;;;;;63.70;18.55;;;;;;;5.61;100.00;99752.47;4969486;28;20035;-78
2022/03/31 00:39:29;;;;;;;51.95;19.75;;;;;;;5.65;100.00;99746.66;4984427;28;20038;-77
2022/03/31 00:41:55;;;;;;;53.88;19.05;;;;;;;5.68;100.00;99751.03;4988300;28;20125;-78
2022/03/31 00:44:20;;;;;;;52.45;18.75;;;;;;;5.64;100.00;99749.50;4977218;28;20030;-78
2022/03/31 00:46:50;;;;;;;58.60;19.77;;;;;;;5.68;100.00;99751.03;4990984;28;20061;-78
2022/03/31 00:49:20;;;;;;;59.28;20.08;;;;;;;5.69;100.00;99748.19;4995632;28;20023;-78
2022/03/31 00:51:46;;;;;;;60.75;19.70;;;;;;;5.68;100.00;99753.72;5014128;28;20033;-78
2022/03/31 00:54:12;;;;;;;62.28;20.55;;;;;;;5.67;100.00;99739.31;4983850;28;20039;-78
2022/03/31 00:56:40;;;;;;;56.58;18.65;;;;;;;5.62;100.00;99752.34;4998056;28;20033;-77
2022/03/31 00:59:08;;;;;;;62.30;20.83;;;;;;;5.70;100.00;99749.91;4992270;28;20157;-77
2022/03/31 01:01:37;;;;;;;50.30;18.80;;;;;;;5.74;100.00;99750.56;4982319;28;20054;-77
2022/03/31 01:04:04;;;;;;;52.58;19.55;;;;;;;5.57;100.00;99743.69;4992004;28;20030;-77
2022/03/31 01:06:29;;;;;;;52.33;19.13;;;;;;;5.63;100.00;99747.78;4967590;28;20050;-77
2022/03/31 01:08:56;;;;;;;55.53;19.25;;;;;;;5.48;100.00;99742.53;4981516;28;20105;-77
2022/03/31 01:11:21;;;;;;;53.05;19.15;;;;;;;5.42;100.00;99739.44;4984921;28;20030;-77
2022/03/31 01:13:48;;;;;;;63.92;20.17;;;;;;;5.43;100.00;99742.03;5004770;28;20057;-77
2022/03/31 01:16:14;;;;;;;55.53;20.23;;;;;;;5.46;100.00;99740.91;4985363;28;20048;-77
2022/03/31 01:18:40;;;;;;;52.03;19.00;;;;;;;5.26;100.00;99729.75;4990336;28;20533;-77
2022/03/31 01:21:05;;;;;;;51.42;18.48;;;;;;;5.36;100.00;99734.47;4975256;28;20105;-77
2022/03/31 01:23:31;;;;;;;62.20;19.15;;;;;;;5.32;100.00;99731.97;4985314;28;20438;-76
2022/03/31 01:25:56;;;;;;;46.92;18.30;;;;;;;5.39;100.00;99728.81;4991518;28;20055;-77
2022/03/31 01:28:22;;;;;;;51.00;18.67;;;;;;;5.41;100.00;99732.25;4991027;28;20125;-77
2022/03/31 01:30:48;;;;;;;44.67;17.88;;;;;;;5.31;100.00;99732.09;4992918;28;20031;-77
2022/03/31 01:33:14;;;;;;;46.80;17.83;;;;;;;5.32;100.00;99729.25;4981417;28;20129;-77
2022/03/31 01:35:40;;;;;;;44.97;16.83;;;;;;;5.26;100.00;99735.19;4979409;28;20077;-77
2022/03/31 01:38:06;;;;;;;46.47;17.05;;;;;;;5.38;100.00;99732.47;4984571;28;20046;-77
2022/03/31 01:40:32;;;;;;;48.47;16.63;;;;;;;5.28;100.00;99733.19;4986315;28;20026;-77
2022/03/31 01:42:58;;;;;;;45.63;17.60;;;;;;;5.31;100.00;99727.53;4980062;28;20031;-76
2022/03/31 01:45:23;;;;;;;45.67;16.70;;;;;;;5.27;100.00;99726.03;4987412;28;20545;-77
2022/03/31 01:47:49;;;;;;;37.97;15.48;;;;;;;5.30;100.00;99736.66;4986537;28;20035;-77
2022/03/31 01:50:15;;;;;;;37.88;14.80;;;;;;;5.38;100.00;99729.78;4988151;28;20145;-77
2022/03/31 01:52:41;;;;;;;37.40;15.60;;;;;;;5.32;100.00;99722.97;4990660;28;20061;-77
2022/03/31 01:55:08;;;;;;;29.98;13.98;;;;;;;5.28;100.00;99725.06;4989285;28;20041;-77
2022/03/31 01:57:34;;;;;;;37.55;14.57;;;;;;;5.22;100.00;99720.09;4994395;28;20038;-77
2022/03/31 02:00:03;;;;;;;36.22;13.93;;;;;;;5.23;100.00;99724.53;4983912;28;20037;-77
2022/03/31 02:02:30;;;;;;;33.28;14.25;;;;;;;5.23;100.00;99721.84;4995068;28;20034;-77
2022/03/31 02:04:56;;;;;;;37.05;14.95;;;;;;;5.13;100.00;99712.63;4992581;28;20027;-77
2022/03/31 02:07:22;;;;;;;34.25;15.32;;;;;;;5.19;100.00;99719.47;4987012;28;20035;-77
2022/03/31 02:09:48;;;;;;;35.58;14.27;;;;;;;5.21;100.00;99709.34;4995633;28;20037;-77
2022/03/31 02:12:13;;;;;;;39.30;16.48;;;;;;;5.14;100.00;99711.66;4986540;28;20034;-77
2022/03/31 02:14:40;;;;;;;31.40;14.63;;;;;;;5.21;100.00;99718.34;5007646;28;20466;-77
2022/03/31 02:17:08;;;;;;;36.88;15.82;;;;;;;5.14;100.00;99719.81;4995827;28;20101;-77
2022/03/31 02:19:37;;;;;;;37.13;17.48;;;;;;;5.14;100.00;99720.66;4983029;28;20030;-77
2022/03/31 02:22:04;;;;;;;34.05;15.75;;;;;;;5.09;100.00;99716.56;4992941;28;20034;-77
2022/03/31 02:24:30;;;;;;;42.60;17.05;;;;;;;5.14;100.00;99715.22;5000486;28;20050;-78
2022/03/31 02:26:57;;;;;;;36.00;16.42;;;;;;;5.09;100.00;99700.28;5018084;28;20042;-78
2022/03/31 02:29:23;;;;;;;36.20;16.48;;;;;;;5.19;100.00;99706.75;5012451;28;20034;-77
2022/03/31 02:31:48;;;;;;;34.22;16.05;;;;;;;5.08;100.00;99707.56;4999311;28;20386;-77
2022/03/31 02:34:17;;;;;;;33.47;16.27;;;;;;;5.14;100.00;99698.94;4994453;28;20037;-77
2022/03/31 02:36:44;;;;;;;30.02;15.73;;;;;;;5.09;100.00;99700.28;5014944;28;20405;-77
2022/03/31 02:39:10;;;;;;;35.53;16.20;;;;;;;4.85;100.00;99665.88;5012736;28;20136;-78
2022/03/31 02:41:37;;;;;;;33.65;16.88;;;;;;;5.03;100.00;99690.75;4997575;28;20096;-77
2022/03/31 02:44:03;;;;;;;32.67;15.40;;;;;;;4.95;100.00;99691.34;4978317;28;20873;-77
2022/03/31 02:46:29;;;;;;;38.30;17.35;;;;;;;4.84;100.00;99685.84;4991329;28;20013;-77
2022/03/31 02:48:55;;;;;;;33.33;17.17;;;;;;;4.82;100.00;99685.09;4973793;28;20080;-78
2022/03/31 02:51:22;;;;;;;39.67;16.33;;;;;;;4.85;100.00;99674.00;4998263;28;20482;-77
2022/03/31 02:56:32;;;;;;;36.08;17.30;;;;;;;4.71;100.00;99680.47;5004568;28;20042;-77
2022/03/31 02:58:58;;;;;;;34.92;17.25;;;;;;;4.75;100.00;99675.69;5008263;28;20080;-77
2022/03/31 03:01:24;;;;;;;38.80;18.13;;;;;;;4.74;100.00;99673.97;4986620;28;20133;-77
2022/03/31 03:03:50;;;;;;;36.63;16.40;;;;;;;4.75;100.00;99678.38;5013030;28;20034;-77
2022/03/31 03:06:17;;;;;;;39.65;18.90;;;;;;;4.62;100.00;99661.31;4990659;28;20041;-77
2022/03/31 03:08:45;;;;;;;41.28;19.27;;;;;;;4.69;100.00;99678.84;5010049;28;20034;-77
2022/03/31 03:11:11;;;;;;;40.30;18.70;;;;;;;4.70;100.00;99665.16;5003349;28;20030;-77
2022/03/31 03:13:37;;;;;;;39.85;19.23;;;;;;;4.59;100.00;99668.69;5014101;28;20045;-77
2022/03/31 03:16:08;;;;;;;37.67;20.17;;;;;;;4.60;100.00;99670.41;4992420;28;20501;-77
2022/03/31 03:18:37;;;;;;;38.10;18.88;;;;;;;4.48;100.00;99663.19;5003015;28;20057;-77
2022/03/31 03:21:04;;;;;;;36.20;19.23;;;;;;;4.51;100.00;99664.78;4992638;28;20046;-76
2022/03/31 03:23:34;;;;;;;30.80;14.85;;;;;;;4.45;100.00;99668.81;4978311;28;20038;-77
2022/03/31 03:26:01;;;;;;;29.52;14.98;;;;;;;4.49;100.00;99666.75;5007844;28;20057;-77
2022/03/31 03:28:27;;;;;;;26.35;13.30;;;;;;;4.32;100.00;99644.47;4988787;28;20034;-77
2022/03/31 03:30:53;;;;;;;25.38;14.07;;;;;;;4.32;100.00;99668.00;4990048;28;20046;-77
2022/03/31 03:33:19;;;;;;;26.92;12.98;;;;;;;4.26;100.00;99663.00;4992824;28;20097;-77
2022/03/31 03:35:45;;;;;;;26.25;12.98;;;;;;;4.31;100.00;99664.44;5003271;28;20042;-77
2022/03/31 03:38:11;;;;;;;24.75;12.95;;;;;;;4.24;100.00;99668.53;4992725;28;20527;-77
2022/03/31 03:40:37;;;;;;;19.40;11.60;;;;;;;4.30;100.00;99664.53;4984911;28;20038;-77
2022/03/31 03:43:04;;;;;;;21.33;12.13;;;;;;;4.23;100.00;99661.38;5008536;28;20026;-77
2022/03/31 03:45:30;;;;;;;27.55;11.55;;;;;;;4.26;100.00;99660.31;5001684;28;20092;-77
2022/03/31 03:47:56;;;;;;;24.45;11.20;;;;;;;4.31;100.00;99655.41;4988925;28;20042;-79
2022/03/31 03:50:21;;;;;;;21.63;11.43;;;;;;;4.30;100.00;99649.13;5003000;28;20038;-77
2022/03/31 03:52:47;;;;;;;31.85;12.55;;;;;;;4.14;100.00;99643.09;4995693;28;20034;-78
2022/03/31 03:55:13;;;;;;;19.92;11.50;;;;;;;4.13;100.00;99646.78;5002453;28;20068;-78
2022/03/31 03:57:39;;;;;;;21.80;11.80;;;;;;;4.14;100.00;99634.97;4976293;28;20490;-78
2022/03/31 04:00:05;;;;;;;19.98;11.38;;;;;;;4.10;100.00;99642.47;4987299;28;20444;-78
2022/03/31 04:02:31;;;;;;;22.35;11.43;;;;;;;4.08;100.00;99647.09;4981364;28;20037;-77
2022/03/31 04:04:57;;;;;;;25.10;12.15;;;;;;;4.05;100.00;99634.66;4999410;28;20046;-78
2022/03/31 04:07:22;;;;;;;22.90;12.75;;;;;;;4.06;100.00;99630.09;5004240;28;20030;-77
2022/03/31 04:09:50;;;;;;;25.90;11.77;;;;;;;4.13;100.00;99641.34;5008784;28;20037;-77
2022/03/31 04:12:16;;;;;;;25.70;12.30;;;;;;;4.08;100.00;99636.25;4999808;28;20102;-77
2022/03/31 04:14:41;;;;;;;21.17;11.85;;;;;;;4.09;100.00;99639.84;4995488;28;20038;-78
2022/03/31 04:17:07;;;;;;;23.02;11.85;;;;;;;4.01;100.00;99632.28;4982943;28;20395;-77
2022/03/31 04:19:33;;;;;;;24.05;12.40;;;;;;;4.09;100.00;99645.28;5003865;28;20160;-77
2022/03/31 04:21:58;;;;;;;29.63;12.52;;;;;;;4.12;100.00;99645.06;4981589;28;20065;-77
2022/03/31 04:24:25;;;;;;;31.58;11.75;;;;;;;4.18;100.00;99641.88;5003300;28;20096;-77
2022/03/31 04:26:51;;;;;;;22.60;12.57;;;;;;;4.08;100.00;99643.53;4986627;28;20034;-77
2022/03/31 04:29:17;;;;;;;22.48;12.55;;;;;;;4.26;100.00;99644.03;4992140;28;20087;-77
2022/03/31 04:31:43;;;;;;;24.40;12.43;;;;;;;4.18;100.00;99645.47;4971049;28;20034;-77
2022/03/31 04:34:10;;;;;;;22.23;11.77;;;;;;;4.16;100.00;99647.41;4989356;28;20025;-78
2022/03/31 04:36:36;;;;;;;28.83;12.25;;;;;;;4.20;100.00;99648.94;5005936;28;20499;-77
2022/03/31 04:39:03;;;;;;;27.23;12.70;;;;;;;4.23;100.00;99647.84;5003867;28;20030;-76
2022/03/31 04:41:29;;;;;;;28.20;13.55;;;;;;;4.10;100.00;99645.16;4984863;28;20085;-76
2022/03/31 04:43:54;;;;;;;25.27;13.98;;;;;;;4.04;100.00;99641.03;4992701;28;20041;-76
2022/03/31 04:46:20;;;;;;;26.80;14.20;;;;;;;4.02;100.00;99655.69;5000951;28;20037;-77
2022/03/31 04:48:46;;;;;;;28.10;13.90;;;;;;;4.07;100.00;99653.50;4981518;28;20057;-76
2022/03/31 04:51:12;;;;;;;26.65;13.60;;;;;;;4.04;100.00;99651.88;4997573;28;20034;-76
2022/03/31 04:53:38;;;;;;;28.92;13.77;;;;;;;4.14;100.00;99646.66;4987475;28;20104;-76
2022/03/31 04:56:03;;;;;;;30.77;13.77;;;;;;;4.03;100.00;99644.75;5011280;28;20077;-76
2022/03/31 04:58:29;;;;;;;24.58;13.25;;;;;;;4.10;100.00;99653.28;4990332;28;20497;-76
2022/03/31 05:00:55;;;;;;;36.35;14.07;;;;;;;4.07;100.00;99661.63;5009223;28;20493;-77
2022/03/31 05:03:21;;;;;;;21.83;13.18;;;;;;;4.19;100.00;99654.47;5003457;28;20042;-77
2022/03/31 05:05:46;;;;;;;32.13;14.18;;;;;;;4.05;100.00;99655.47;4985059;28;20069;-75
2022/03/31 05:08:12;;;;;;;29.13;15.52;;;;;;;4.07;100.00;99656.22;4988618;28;20398;-75
2022/03/31 05:10:38;;;;;;;33.35;16.00;;;;;;;4.07;100.00;99652.63;5001533;28;20038;-76
2022/03/31 05:13:04;;;;;;;29.65;15.38;;;;;;;4.00;100.00;99653.09;4974915;28;20766;-77
2022/03/31 05:15:30;;;;;;;33.28;15.30;;;;;;;4.00;100.00;99653.09;4993227;28;20105;-77
2022/03/31 05:17:55;;;;;;;33.97;16.20;;;;;;;3.86;100.00;99637.81;4981838;28;20022;-77
2022/03/31 05:20:22;;;;;;;32.42;15.13;;;;;;;4.03;100.00;99642.03;4986770;28;20093;-77
2022/03/31 05:22:48;;;;;;;29.17;14.88;;;;;;;4.01;100.00;99648.53;4994365;28;20144;-77
2022/03/31 05:25:15;;;;;;;31.17;16.33;;;;;;;4.08;100.00;99643.53;4970187;28;20050;-76
2022/03/31 05:27:45;;;;;;;30.77;16.00;;;;;;;3.78;100.00;99599.59;5005136;28;20038;-76
2022/03/31 05:30:19;;;;;;;30.42;15.20;;;;;;;4.06;100.00;99651.75;4958583;28;20068;-76
2022/03/31 05:32:46;;;;;;;31.38;15.25;;;;;;;3.99;100.00;99656.75;5000981;28;20084;-76
2022/03/31 05:35:13;;;;;;;31.38;14.63;;;;;;;4.11;100.00;99657.72;4986562;28;20080;-77
2022/03/31 05:37:39;;;;;;;34.45;13.70;;;;;;;4.02;100.00;99655.69;5003209;28;20041;-77
2022/03/31 05:40:07;;;;;;;24.08;11.65;;;;;;;4.12;100.00;99655.91;4987891;28;20040;-77
2022/03/31 05:42:36;;;;;;;21.27;11.07;;;;;;;3.90;100.00;99645.72;4990354;28;20030;-77
2022/03/31 05:45:04;;;;;;;18.80;10.55;;;;;;;3.80;100.00;99656.31;4992802;28;20037;-78
2022/03/31 05:47:30;;;;;;;22.80;10.18;;;;;;;3.83;100.00;99659.69;5004135;28;20041;-77
2022/03/31 05:49:56;;;;;;;22.23;9.70;;;;;;;3.88;100.00;99659.34;5004042;28;20382;-77
2022/03/31 05:52:21;;;;;;;17.77;9.20;;;;;;;3.71;100.00;99663.25;4985284;28;20030;-78
2022/03/31 05:54:47;;;;;;;15.65;7.35;;;;;;;3.58;100.00;99670.50;4979513;28;20390;-78
2022/03/31 05:57:13;;;;;;;15.63;7.47;;;;;;;3.38;100.00;99675.44;4981090;28;20097;-78
2022/03/31 05:59:38;;;;;;;11.18;7.30;;;;;;;3.38;100.00;99664.63;5003210;28;20064;-78
2022/03/31 06:02:04;;;;;;;10.60;6.10;;;;;;;3.47;100.00;99660.41;4994067;28;20034;-77
2022/03/31 06:04:30;;;;;;;12.40;7.00;;;;;;;3.33;100.00;99669.50;4981671;28;20036;-77
2022/03/31 06:06:55;;;;;;;19.83;6.45;;;;;;;3.40;100.00;99665.38;5003943;28;20033;-78
2022/03/31 06:09:21;;;;;;;12.82;7.13;;;;;;;3.44;100.00;99657.91;4968654;28;20053;-78
2022/03/31 06:11:46;;;;;;;14.93;6.43;;;;;;;3.31;100.00;99671.41;5006529;28;20024;-78
2022/03/31 06:14:12;;;;;;;11.05;7.00;;;;;;;3.33;100.00;99669.50;5007054;28;20089;-79
2022/03/31 06:16:39;;;;;;;10.98;6.07;;;;;;;3.22;100.00;99669.34;5007192;28;20038;-78
2022/03/31 06:19:08;;;;;;;12.10;6.32;;;;;;;3.20;100.00;99676.69;4992992;28;20049;-77
2022/03/31 06:21:34;;;;;;;11.52;6.22;;;;;;;3.11;100.00;99675.47;5005239;28;20061;-78
2022/03/31 06:24:00;;;;;;;9.98;5.72;;;;;;;3.04;100.00;99680.44;4968384;28;20041;-78
2022/03/31 06:26:27;;;;;;;11.50;7.18;;;;;;;3.01;100.00;99683.34;4996355;28;20050;-78
2022/03/31 06:28:53;;;;;;;10.63;6.18;;;;;;;2.91;100.00;99669.56;5004638;28;20031;-77
2022/03/31 06:31:21;;;;;;;14.15;6.95;;;;;;;3.12;100.00;99678.09;5006241;28;20533;-78
2022/03/31 06:33:47;;;;;;;11.82;6.30;;;;;;;3.02;100.00;99678.81;4994614;28;20038;-79
2022/03/31 06:36:12;;;;;;;22.00;8.55;;;;;;;2.93;100.00;99672.16;5010235;28;20049;-78
2022/03/31 06:38:38;;;;;;;11.90;7.40;;;;;;;2.98;100.00;99680.84;5009241;28;20034;-78
2022/03/31 06:41:06;;;;;;;12.77;7.90;;;;;;;2.91;100.00;99674.13;5000281;28;20073;-78
2022/03/31 06:43:36;;;;;;;19.05;7.30;;;;;;;2.97;100.00;99679.13;4994417;28;20026;-78
2022/03/31 06:46:02;;;;;;;14.13;7.43;;;;;;;2.97;100.00;99683.63;5016271;28;20458;-77
2022/03/31 06:48:30;;;;;;;13.30;8.02;;;;;;;2.75;100.00;99677.84;4987291;28;20033;-77
2022/03/31 06:50:56;;;;;;;12.95;6.78;;;;;;;2.74;100.00;99677.94;4991219;28;20394;-77
2022/03/31 06:53:22;;;;;;;11.40;6.18;;;;;;;2.72;100.00;99682.56;5010686;28;20108;-78
2022/03/31 06:55:47;;;;;;;10.88;5.68;;;;;;;2.68;100.00;99681.91;5015556;28;20185;-77
2022/03/31 06:58:13;;;;;;;17.60;6.70;;;;;;;2.71;100.00;99679.00;4996468;28;20030;-79
2022/03/31 07:00:39;;;;;;;11.45;6.68;;;;;;;2.67;100.00;99682.00;5005631;28;20079;-77
2022/03/31 07:03:04;;;;;;;13.65;6.15;;;;;;;2.56;100.00;99688.13;4989592;28;20026;-77
2022/03/31 07:05:30;;;;;;;9.38;6.05;;;;;;;2.47;100.00;99686.00;5010341;28;20038;-77
2022/03/31 07:07:55;;;;;;;10.57;5.95;;;;;;;2.47;100.00;99678.75;4989809;28;20133;-77
2022/03/31 07:10:21;;;;;;;11.98;5.63;;;;;;;2.49;100.00;99681.38;5007800;28;20044;-78
2022/03/31 07:12:48;;;;;;;10.23;6.28;;;;;;;2.35;100.00;99687.66;4998615;28;20088;-77
2022/03/31 07:15:13;;;;;;;10.13;5.65;;;;;;;2.43;100.00;99684.44;4997894;28;20040;-78
2022/03/31 07:17:39;;;;;;;10.68;6.03;;;;;;;2.37;100.00;99678.47;4991038;28;20029;-76
2022/03/31 07:20:06;;;;;;;11.25;5.88;;;;;;;2.47;100.00;99673.34;4970674;28;20038;-76
2022/03/31 07:22:32;;;;;;;13.05;7.00;;;;;;;2.50;100.00;99675.88;5008741;28;20034;-77
2022/03/31 07:24:59;;;;;;;10.93;6.10;;;;;;;2.45;100.00;99679.84;5004076;28;20062;-78
2022/03/31 07:27:25;;;;;;;14.75;7.18;;;;;;;2.35;100.00;99672.31;5011511;28;20041;-77
2022/03/31 07:29:51;;;;;;;13.15;6.88;;;;;;;2.47;100.00;99670.66;4996405;28;20030;-76
2022/03/31 07:32:16;;;;;;;11.35;6.20;;;;;;;2.36;100.00;99660.56;4991253;28;20022;-77
2022/03/31 07:34:42;;;;;;;13.38;6.97;;;;;;;2.36;100.00;99671.38;4995260;28;20042;-76
2022/03/31 07:37:08;;;;;;;12.32;6.50;;;;;;;2.37;100.00;99674.94;5007907;28;20038;-77
2022/03/31 07:39:35;;;;;;;14.25;7.18;;;;;;;2.41;100.00;99686.41;4989957;28;20057;-78
2022/03/31 07:42:00;;;;;;;10.85;6.80;;;;;;;2.28;100.00;99678.19;4986251;28;20034;-77
2022/03/31 07:44:26;;;;;;;10.88;7.10;;;;;;;2.13;100.00;99683.63;4984641;28;20038;-77
2022/03/31 07:46:51;;;;;;;15.52;7.03;;;;;;;2.22;100.00;99679.47;5010858;28;20030;-77
2022/03/31 07:49:18;;;;;;;10.38;6.93;;;;;;;2.11;100.00;99692.78;4975207;28;20473;-76
2022/03/31 07:51:44;;;;;;;9.68;6.82;;;;;;;2.17;100.00;99689.72;4986489;28;20081;-77
2022/03/31 07:54:09;;;;;;;8.35;5.97;;;;;;;2.20;100.00;99679.56;5016270;28;20026;-78
2022/03/31 07:56:35;;;;;;;9.70;6.53;;;;;;;2.36;100.00;99689.38;4995366;28;20026;-77
2022/03/31 07:59:01;;;;;;;6.90;5.50;;;;;;;2.17;100.00;99692.41;4994955;28;20050;-77
2022/03/31 08:01:26;;;;;;;9.35;6.43;;;;;;;2.13;100.00;99686.34;5000084;28;20030;-77
2022/03/31 08:03:53;;;;;;;9.98;6.88;;;;;;;2.15;100.00;99686.25;5009750;28;20048;-77
2022/03/31 08:06:19;;;;;;;9.82;6.53;;;;;;;2.11;100.00;99679.28;5014595;28;20034;-78
2022/03/31 08:08:45;;;;;;;8.65;5.53;;;;;;;1.91;100.00;99689.50;4999523;28;20037;-77
2022/03/31 08:11:10;;;;;;;8.98;6.45;;;;;;;1.97;100.00;99682.88;5011613;28;20030;-78
2022/03/31 08:13:36;;;;;;;9.55;6.18;;;;;;;1.92;100.00;99684.97;4995554;28;20077;-78
2022/03/31 08:16:02;;;;;;;8.57;5.75;;;;;;;1.84;100.00;99682.75;4990028;28;20042;-77
2022/03/31 08:18:32;;;;;;;8.18;5.75;;;;;;;1.89;100.00;99686.03;5000964;28;20045;-77
2022/03/31 08:20:58;;;;;;;8.73;5.72;;;;;;;1.99;100.00;99697.13;4975044;28;20100;-76
2022/03/31 08:23:25;;;;;;;9.65;6.55;;;;;;;2.06;100.00;99693.06;4992205;28;20029;-76
2022/03/31 08:25:51;;;;;;;11.05;6.47;;;;;;;1.95;100.00;99687.47;5004410;28;20068;-77
2022/03/31 08:28:16;;;;;;;10.00;7.05;;;;;;;1.94;100.00;99691.16;4981074;28;21389;-77
2022/03/31 08:30:42;;;;;;;9.40;6.93;;;;;;;1.98;100.00;99698.97;4997306;28;20035;-76
2022/03/31 08:33:07;;;;;;;9.93;6.78;;;;;;;1.91;100.00;99696.75;4981058;28;20061;-77
2022/03/31 08:35:33;;;;;;;10.77;6.32;;;;;;;1.90;100.00;99697.69;4998366;28;20379;-76
2022/03/31 08:37:58;;;;;;;9.50;6.70;;;;;;;1.79;100.00;99684.88;5002127;28;20041;-77
2022/03/31 08:40:24;;;;;;;9.20;5.78;;;;;;;1.92;100.00;99702.03;4980695;28;20121;-77
2022/03/31 08:42:53;;;;;;;7.15;5.80;;;;;;;1.96;100.00;99694.63;5000798;28;20104;-77
2022/03/31 08:45:20;;;;;;;9.07;6.85;;;;;;;1.89;100.00;99691.44;4989838;28;20037;-77
2022/03/31 08:47:48;;;;;;;8.45;5.47;;;;;;;1.97;100.00;99691.81;4984802;28;20548;-78
2022/03/31 08:50:15;;;;;;;10.55;5.45;;;;;;;2.08;100.00;99698.38;4991726;28;20462;-77
2022/03/31 08:52:41;;;;;;;8.82;6.30;;;;;;;2.01;100.00;99695.19;4983073;28;20117;-77
2022/03/31 08:55:08;;;;;;;9.63;6.18;;;;;;;1.99;100.00;99698.00;4996074;28;20096;-77
2022/03/31 08:57:45;;;;;;;7.28;5.22;;;;;;;1.74;100.00;99690.56;5005745;28;20081;-77
2022/03/31 09:00:12;;;;;;;8.48;6.18;;;;;;;1.79;100.00;99698.38;5017078;28;20034;-77
2022/03/31 09:02:39;;;;;;;9.13;6.57;;;;;;;1.81;100.00;99696.44;5024744;28;20034;-78
2022/03/31 09:05:09;;;;;;;9.05;6.75;;;;;;;1.94;100.00;99700.13;5009398;28;20038;-77
2022/03/31 09:07:56;;;;;;;10.35;6.57;;;;;;;1.87;100.00;99692.47;5002537;28;20042;-77
2022/03/31 09:10:42;;;;;;;10.15;6.90;;;;;;;2.01;100.00;99701.44;4988332;28;20077;-78
2022/03/31 09:13:17;;;;;;;8.68;6.18;;;;;;;2.05;100.00;99699.44;5006617;28;20061;-77
2022/03/31 09:15:56;;;;;;;10.55;6.78;;;;;;;1.96;100.00;99698.19;4993088;28;20034;-77
2022/03/31 09:18:23;;;;;;;8.65;6.28;;;;;;;2.02;100.00;99703.19;5013235;28;20109;-77
2022/03/31 09:20:52;;;;;;;10.13;6.93;;;;;;;1.97;100.00;99707.16;5010610;28;20117;-76
2022/03/31 09:23:19;;;;;;;10.27;7.30;;;;;;;2.01;100.00;99701.44;5004615;28;20117;-78
2022/03/31 09:25:46;;;;;;;10.80;6.13;;;;;;;1.99;100.00;99700.69;5007853;28;20068;-78
2022/03/31 09:28:16;;;;;;;7.50;6.07;;;;;;;2.00;100.00;99702.44;5004347;28;20070;-77
2022/03/31 09:30:53;;;;;;;8.50;6.25;;;;;;;2.06;100.00;99716.50;4983378;28;20121;-77
2022/03/31 09:33:35;;;;;;;10.38;6.63;;;;;;;2.11;100.00;99717.09;4987013;28;20034;-77
2022/03/31 09:36:05;;;;;;;8.60;6.47;;;;;;;2.15;100.00;99718.66;4997857;28;20034;-77
2022/03/31 09:38:33;;;;;;;10.70;6.85;;;;;;;2.13;100.00;99718.75;4983450;28;20030;-77
2022/03/31 09:40:59;;;;;;;8.32;5.75;;;;;;;2.15;100.00;99714.09;4995862;28;20034;-77
2022/03/31 09:43:25;;;;;;;9.35;6.78;;;;;;;2.09;100.00;99719.88;4982685;28;20036;-77
2022/03/31 09:45:51;;;;;;;8.02;5.75;;;;;;;2.08;100.00;99710.03;5009945;28;20081;-77
2022/03/31 09:48:22;;;;;;;9.23;6.50;;;;;;;2.04;100.00;99711.19;4980980;28;20042;-77
2022/03/31 09:50:50;;;;;;;9.57;6.63;;;;;;;2.12;100.00;99703.50;4992446;28;20034;-77
2022/03/31 09:53:17;;;;;;;9.80;7.25;;;;;;;2.20;100.00;99716.53;4999715;28;20111;-77
2022/03/31 09:55:47;;;;;;;9.88;6.25;;;;;;;2.16;100.00;99704.16;4984868;28;20544;-77
2022/03/31 09:58:20;;;;;;;12.70;7.25;;;;;;;2.28;100.00;99698.00;4986876;28;20560;-78
2022/03/31 10:00:45;;;;;;;9.45;7.00;;;;;;;2.41;100.00;99703.50;4999732;28;20037;-77
2022/03/31 10:03:17;;;;;;;9.07;6.72;;;;;;;2.46;100.00;99706.75;5008278;28;20034;-78
2022/03/31 10:05:45;;;;;;;9.73;6.55;;;;;;;2.19;100.00;99715.63;4989929;28;20124;-77
2022/03/31 10:08:12;;;;;;;9.68;7.20;;;;;;;2.44;100.00;99713.22;5011386;28;20030;-78
2022/03/31 10:10:39;;;;;;;9.82;6.97;;;;;;;2.44;100.00;99705.09;4994290;28;20394;-78
2022/03/31 10:13:52;;;;;;;10.75;8.00;;;;;;;2.48;100.00;99704.81;5004404;28;20064;-77
2022/03/31 10:16:22;;;;;;;9.20;6.47;;;;;;;2.57;100.00;99697.94;5000928;28;20046;-77
2022/03/31 10:18:47;;;;;;;9.63;7.07;;;;;;;2.62;100.00;99695.81;5011834;28;20065;-77
2022/03/31 10:21:24;;;;;;;15.98;6.75;;;;;;;2.73;100.00;99690.56;4986522;28;20030;-78
2022/03/31 10:26:34;;;;;;;13.30;7.07;;;;;;;2.76;100.00;99694.91;4999641;28;20045;-78
2022/03/31 10:29:02;;;;;;;9.35;7.03;;;;;;;2.82;100.00;99690.94;4988517;28;20039;-77
2022/03/31 10:31:35;;;;;;;9.68;7.10;;;;;;;2.94;100.00;99692.84;4983884;28;20043;-77
2022/03/31 10:34:01;;;;;;;9.18;6.93;;;;;;;2.98;100.00;99693.50;4985040;28;20038;-78
2022/03/31 10:36:36;;;;;;;9.00;6.80;;;;;;;2.96;100.00;99690.03;4986532;28;20041;-77
2022/03/31 10:39:06;;;;;;;9.77;7.35;;;;;;;2.98;100.00;99696.19;4992471;28;20533;-77
2022/03/31 10:41:39;;;;;;;8.68;6.85;;;;;;;3.01;100.00;99688.75;4992298;28;20430;-77
2022/03/31 10:44:14;;;;;;;15.45;6.75;;;;;;;2.94;100.00;99691.00;4992547;28;20034;-77
2022/03/31 10:46:42;;;;;;;14.95;7.15;;;;;;;3.05;100.00;99686.69;4984053;28;20053;-76
2022/03/31 10:49:14;;;;;;;10.93;7.18;;;;;;;3.02;100.00;99682.38;4989828;28;20555;-78
2022/03/31 10:51:41;;;;;;;11.77;7.60;;;;;;;3.04;100.00;99684.97;4989251;28;20122;-78
2022/03/31 10:54:11;;;;;;;9.38;6.53;;;;;;;2.92;100.00;99683.97;4986156;28;20526;-76
2022/03/31 10:56:38;;;;;;;7.57;5.97;;;;;;;3.05;100.00;99684.00;4978760;28;20046;-77
2022/03/31 10:59:06;;;;;;;7.30;6.20;;;;;;;2.93;100.00;99688.38;4979053;28;20888;-77
2022/03/31 11:01:34;;;;;;;9.20;6.55;;;;;;;2.96;100.00;99688.19;4990070;28;20065;-78
2022/03/31 11:04:09;;;;;;;10.32;6.70;;;;;;;2.91;100.00;99684.94;4995000;28;20482;-78
2022/03/31 11:07:04;;;;;;;8.43;5.78;;;;;;;2.99;100.00;99685.28;4986832;28;20035;-77
2022/03/31 11:09:31;;;;;;;6.97;5.75;;;;;;;2.93;100.00;99677.56;4974305;28;20042;-77
2022/03/31 11:11:59;;;;;;;8.90;6.20;;;;;;;3.06;100.00;99681.19;4990227;28;20458;-78
2022/03/31 11:14:26;;;;;;;7.65;6.18;;;;;;;3.00;100.00;99678.91;4986642;28;20090;-77
2022/03/31 11:16:52;;;;;;;7.60;5.53;;;;;;;3.05;100.00;99679.47;4991127;28;20170;-77
2022/03/31 11:19:20;;;;;;;8.18;6.07;;;;;;;3.06;100.00;99681.19;4989217;28;20061;-78
2022/03/31 11:21:46;;;;;;;11.25;6.25;;;;;;;3.18;100.00;99678.63;4990702;28;20073;-78
2022/03/31 11:24:23;;;;;;;9.10;6.65;;;;;;;3.22;100.00;99677.47;4989910;28;20104;-79
2022/03/31 11:26:48;;;;;;;9.23;5.90;;;;;;;3.43;100.00;99665.19;4970963;28;20090;-77
2022/03/31 11:29:17;;;;;;;7.65;5.95;;;;;;;3.38;100.00;99671.84;4993187;28;20042;-78